createdAt,value
2022-10-18T00:01:10.411Z,101396.63
2022-10-18T00:03:44.872Z,101394.45
2022-10-18T00:06:13.470Z,101396.32
2022-10-18T00:08:42.564Z,101399.20
2022-10-18T00:11:11.027Z,101397.45
2022-10-18T00:13:40.300Z,101394.70
2022-10-18T00:16:13.676Z,101390.04
2022-10-18T00:18:44.775Z,101386.45
2022-10-18T00:21:15.562Z,101385.11
2022-10-18T00:23:46.006Z,101382.56
2022-10-18T00:26:16.316Z,101382.86
2022-10-18T00:28:45.989Z,101377.21
2022-10-18T00:31:16.980Z,101374.77
2022-10-18T00:33:47.575Z,101379.70
2022-10-18T00:36:15.971Z,101377.80
2022-10-18T00:38:45.091Z,101375.48
2022-10-18T00:41:16.625Z,101373.17
2022-10-18T00:44:00.168Z,101377.19
2022-10-18T00:46:31.491Z,101375.52
2022-10-18T00:49:03.948Z,101369.88
2022-10-18T00:51:36.647Z,101367.45
2022-10-18T00:54:05.151Z,101364.65
2022-10-18T00:56:35.015Z,101356.53
2022-10-18T00:59:03.444Z,101355.71
2022-10-18T01:01:31.660Z,101348.77
2022-10-18T01:04:02.774Z,101342.02
2022-10-18T01:06:32.372Z,101337.23
2022-10-18T01:09:14.716Z,101338.22
2022-10-18T01:12:09.381Z,101334.58
2022-10-18T01:14:46.665Z,101329.94
2022-10-18T01:17:20.164Z,101333.40
2022-10-18T01:20:07.184Z,101326.44
2022-10-18T01:22:43.141Z,101325.13
2022-10-18T01:25:25.062Z,101319.94
2022-10-18T01:28:03.861Z,101318.22
2022-10-18T01:30:42.886Z,101317.15
2022-10-18T01:33:28.061Z,101316.42
2022-10-18T01:36:03.292Z,101315.54
2022-10-18T01:38:34.553Z,101316.55
2022-10-18T01:41:05.280Z,101312.58
2022-10-18T01:43:35.504Z,101314.64
2022-10-18T01:46:05.222Z,101307.17
2022-10-18T01:48:33.909Z,101307.64
2022-10-18T01:51:02.107Z,101308.42
2022-10-18T01:53:32.944Z,101306.81
2022-10-18T01:56:20.139Z,101306.33
2022-10-18T01:59:03.250Z,101305.87
2022-10-18T02:01:42.222Z,101306.07
2022-10-18T02:04:14.021Z,101305.02
2022-10-18T02:06:45.188Z,101307.37
2022-10-18T02:09:19.406Z,101306.85
2022-10-18T02:11:50.871Z,101308.43
2022-10-18T02:14:20.991Z,101309.34
2022-10-18T02:16:53.936Z,101314.35
2022-10-18T02:19:28.822Z,101313.42
2022-10-18T02:21:59.549Z,101314.65
2022-10-18T02:24:35.801Z,101316.73
2022-10-18T02:27:04.691Z,101317.20
2022-10-18T02:29:34.509Z,101316.66
2022-10-18T02:32:10.390Z,101312.08
2022-10-18T02:34:42.555Z,101308.11
2022-10-18T02:37:13.769Z,101308.01
2022-10-18T02:39:46.076Z,101305.31
2022-10-18T02:42:16.205Z,101307.30
2022-10-18T02:44:44.929Z,101305.98
2022-10-18T02:47:13.249Z,101305.32
2022-10-18T02:49:41.542Z,101307.40
2022-10-18T02:52:10.034Z,101308.98
2022-10-18T02:54:38.250Z,101309.16
2022-10-18T02:57:06.687Z,101313.58
2022-10-18T02:59:35.226Z,101306.02
2022-10-18T03:02:03.396Z,101311.52
2022-10-18T03:04:31.677Z,101311.36
2022-10-18T03:07:02.616Z,101308.42
2022-10-18T03:09:32.839Z,101302.39
2022-10-18T03:12:02.047Z,101306.92
2022-10-18T03:14:30.228Z,101305.89
2022-10-18T03:16:58.654Z,101309.16
2022-10-18T03:19:27.585Z,101310.53
2022-10-18T03:21:55.915Z,101314.24
2022-10-18T03:24:24.043Z,101305.05
2022-10-18T03:26:52.416Z,101308.63
2022-10-18T03:29:20.608Z,101308.97
2022-10-18T03:31:48.804Z,101308.60
2022-10-18T03:34:17.769Z,101306.96
2022-10-18T03:36:45.920Z,101305.36
2022-10-18T03:39:14.350Z,101306.90
2022-10-18T03:41:42.854Z,101304.77
2022-10-18T03:44:11.423Z,101306.07
2022-10-18T03:46:42.672Z,101304.21
2022-10-18T03:49:11.470Z,101300.64
2022-10-18T03:51:40.021Z,101297.05
2022-10-18T03:54:08.208Z,101299.54
2022-10-18T03:56:36.720Z,101293.94
2022-10-18T03:59:04.980Z,101291.21
2022-10-18T04:01:37.273Z,101298.47
2022-10-18T04:04:05.778Z,101304.49
2022-10-18T04:06:33.947Z,101301.16
2022-10-18T04:09:04.259Z,101299.98
2022-10-18T04:11:34.924Z,101300.77
2022-10-18T04:14:03.406Z,101303.48
2022-10-18T04:16:37.552Z,101303.34
2022-10-18T04:19:05.994Z,101301.65
2022-10-18T04:21:34.279Z,101300.08
2022-10-18T04:24:02.467Z,101298.33
2022-10-18T04:26:31.862Z,101300.77
2022-10-18T04:29:01.148Z,101302.70
2022-10-18T04:31:33.414Z,101303.63
2022-10-18T04:34:03.696Z,101306.92
2022-10-18T04:36:32.026Z,101307.83
2022-10-18T04:39:01.068Z,101307.41
2022-10-18T04:41:32.157Z,101297.95
2022-10-18T04:44:02.849Z,101297.96
2022-10-18T04:46:34.136Z,101306.73
2022-10-18T04:49:03.361Z,101308.60
2022-10-18T04:51:31.513Z,101304.52
2022-10-18T04:54:00.875Z,101303.17
2022-10-18T04:56:30.013Z,101305.73
2022-10-18T04:59:00.194Z,101303.36
2022-10-18T05:01:32.647Z,101304.79
2022-10-18T05:04:01.563Z,101304.35
2022-10-18T05:06:30.032Z,101303.79
2022-10-18T05:08:59.054Z,101306.36
2022-10-18T05:11:27.930Z,101310.33
2022-10-18T05:13:56.072Z,101313.16
2022-10-18T05:16:24.358Z,101314.72
2022-10-18T05:18:52.660Z,101318.08
2022-10-18T05:21:21.225Z,101314.72
2022-10-18T05:23:49.594Z,101311.21
2022-10-18T05:26:17.832Z,101311.63
2022-10-18T05:28:46.327Z,101315.59
2022-10-18T05:31:14.686Z,101316.51
2022-10-18T05:33:43.074Z,101321.13
2022-10-18T05:36:14.571Z,101326.58
2022-10-18T05:38:47.384Z,101325.46
2022-10-18T05:41:15.734Z,101326.41
2022-10-18T05:43:44.470Z,101327.95
2022-10-18T05:46:15.358Z,101330.56
2022-10-18T05:48:48.768Z,101331.31
2022-10-18T05:51:17.597Z,101334.57
2022-10-18T05:53:46.265Z,101337.59
2022-10-18T05:56:14.879Z,101345.09
2022-10-18T05:58:43.435Z,101344.90
2022-10-18T06:01:11.797Z,101350.06
2022-10-18T06:03:40.055Z,101350.64
2022-10-18T06:06:10.992Z,101351.56
2022-10-18T06:08:41.216Z,101353.48
2022-10-18T06:11:11.680Z,101354.91
2022-10-18T06:13:44.413Z,101355.17
2022-10-18T06:16:14.766Z,101356.11
2022-10-18T06:18:43.332Z,101349.02
2022-10-18T06:21:11.873Z,101348.44
2022-10-18T06:23:40.555Z,101352.02
2022-10-18T06:26:11.237Z,101352.16
2022-10-18T06:28:39.806Z,101358.63
2022-10-18T06:31:08.476Z,101353.61
2022-10-18T06:33:36.999Z,101356.40
2022-10-18T06:36:08.104Z,101358.33
2022-10-18T06:38:36.563Z,101360.87
2022-10-18T06:41:05.985Z,101358.88
2022-10-18T06:43:34.374Z,101356.92
2022-10-18T06:46:06.175Z,101355.27
2022-10-18T06:48:35.107Z,101354.63
2022-10-18T06:51:06.069Z,101353.86
2022-10-18T06:53:43.748Z,101349.70
2022-10-18T06:56:17.034Z,101350.93
2022-10-18T06:58:45.760Z,101354.44
2022-10-18T07:01:15.907Z,101355.33
2022-10-18T07:03:45.753Z,101354.10
2022-10-18T07:06:16.393Z,101352.66
2022-10-18T07:08:45.180Z,101356.86
2022-10-18T07:11:17.149Z,101353.04
2022-10-18T07:13:46.077Z,101352.01
2022-10-18T07:16:18.407Z,101350.52
2022-10-18T07:18:49.395Z,101349.29
2022-10-18T07:21:19.987Z,101357.16
2022-10-18T07:23:49.615Z,101355.55
2022-10-18T07:26:20.733Z,101359.66
2022-10-18T07:28:53.737Z,101358.36
2022-10-18T07:31:22.883Z,101363.33
2022-10-18T07:33:51.845Z,101364.43
2022-10-18T07:36:21.944Z,101365.55
2022-10-18T07:38:51.427Z,101358.90
2022-10-18T07:41:19.888Z,101355.73
2022-10-18T07:43:50.591Z,101354.84
2022-10-18T07:46:20.134Z,101352.98
2022-10-18T07:48:49.353Z,101347.20
2022-10-18T07:51:19.556Z,101347.36
2022-10-18T07:53:48.274Z,101345.46
2022-10-18T07:56:21.318Z,101339.65
2022-10-18T07:58:51.729Z,101335.34
2022-10-18T08:01:22.108Z,101333.05
2022-10-18T08:03:51.310Z,101334.91
2022-10-18T08:06:21.128Z,101331.21
2022-10-18T08:08:49.713Z,101333.52
2022-10-18T08:11:19.371Z,101336.71
2022-10-18T08:13:47.899Z,101336.53
2022-10-18T08:16:17.981Z,101330.06
2022-10-18T08:18:46.403Z,101329.52
2022-10-18T08:21:16.558Z,101328.20
2022-10-18T08:23:45.435Z,101329.98
2022-10-18T08:26:15.867Z,101329.70
2022-10-18T08:28:53.678Z,101328.38
2022-10-18T08:31:22.778Z,101325.11
2022-10-18T08:33:51.111Z,101322.49
2022-10-18T08:36:20.045Z,101320.73
2022-10-18T08:38:48.911Z,101318.53
2022-10-18T08:41:41.562Z,101312.73
2022-10-18T08:44:16.807Z,101312.63
2022-10-18T08:46:47.806Z,101312.09
2022-10-18T08:49:26.053Z,101315.12
2022-10-18T08:51:56.230Z,101315.77
2022-10-18T08:54:32.522Z,101312.75
2022-10-18T08:57:10.324Z,101310.70
2022-10-18T08:59:38.934Z,101308.41
2022-10-18T09:02:22.075Z,101308.13
2022-10-18T09:04:57.896Z,101304.17
2022-10-18T09:07:53.208Z,101303.25
2022-10-18T09:10:33.877Z,101300.67
2022-10-18T09:13:48.008Z,101302.85
2022-10-18T09:16:23.792Z,101299.90
2022-10-18T09:19:02.252Z,101296.64
2022-10-18T09:21:45.493Z,101299.73
2022-10-18T09:24:20.324Z,101299.65
2022-10-18T09:26:54.649Z,101296.48
2022-10-18T09:29:41.271Z,101290.11
2022-10-18T09:32:25.349Z,101287.60
2022-10-18T09:34:58.140Z,101284.11
2022-10-18T09:37:30.272Z,101282.06
2022-10-18T09:40:06.847Z,101283.81
2022-10-18T09:42:40.146Z,101276.66
2022-10-18T09:45:22.429Z,101273.95
2022-10-18T09:48:00.616Z,101268.80
2022-10-18T09:50:35.767Z,101266.54
2022-10-18T09:53:18.049Z,101259.27
2022-10-18T09:55:56.829Z,101254.30
2022-10-18T09:58:32.298Z,101250.20
2022-10-18T10:01:02.069Z,101245.54
2022-10-18T10:03:30.891Z,101237.27
2022-10-18T10:06:22.785Z,101235.90
2022-10-18T10:08:59.476Z,101237.16
2022-10-18T10:11:31.250Z,101237.87
2022-10-18T10:14:08.757Z,101234.54
2022-10-18T10:16:49.841Z,101229.82
2022-10-18T10:19:21.081Z,101226.02
2022-10-18T10:21:53.058Z,101222.77
2022-10-18T10:24:28.922Z,101220.91
2022-10-18T10:27:02.547Z,101210.56
2022-10-18T10:30:04.191Z,101205.23
2022-10-18T10:32:46.943Z,101204.14
2022-10-18T10:35:35.499Z,101198.99
2022-10-18T10:38:23.572Z,101196.05
2022-10-18T10:40:52.563Z,101188.08
2022-10-18T10:43:37.031Z,101182.51
2022-10-18T10:46:10.608Z,101176.11
2022-10-18T10:48:49.582Z,101175.52
2022-10-18T10:51:29.900Z,101176.00
2022-10-18T10:54:02.858Z,101168.17
2022-10-18T10:56:33.839Z,101159.10
2022-10-18T10:59:14.382Z,101156.30
2022-10-18T11:01:43.416Z,101155.64
2022-10-18T11:04:27.687Z,101158.08
2022-10-18T11:07:09.212Z,101153.52
2022-10-18T11:09:52.865Z,101152.13
2022-10-18T11:12:32.745Z,101155.55
2022-10-18T11:15:13.401Z,101155.02
2022-10-18T11:17:48.570Z,101149.85
2022-10-18T11:20:22.863Z,101151.80
2022-10-18T11:23:00.620Z,101152.71
2022-10-18T11:25:52.235Z,101143.99
2022-10-18T11:28:41.758Z,101141.49
2022-10-18T11:31:18.890Z,101138.61
2022-10-18T11:34:09.265Z,101135.55
2022-10-18T11:36:56.401Z,101134.83
2022-10-18T11:39:49.663Z,101129.57
2022-10-18T11:42:29.717Z,101120.99
2022-10-18T11:45:11.300Z,101114.21
2022-10-18T11:47:52.277Z,101109.30
2022-10-18T11:50:30.827Z,101103.14
2022-10-18T11:53:12.905Z,101096.83
2022-10-18T11:55:56.871Z,101093.16
2022-10-18T11:58:45.544Z,101098.00
2022-10-18T12:01:28.401Z,101095.32
2022-10-18T12:04:09.751Z,101099.16
2022-10-18T12:06:42.636Z,101096.96
2022-10-18T12:09:24.097Z,101093.27
2022-10-18T12:11:57.080Z,101090.61
2022-10-18T12:14:29.192Z,101084.30
2022-10-18T12:17:35.700Z,101078.10
2022-10-18T12:20:03.373Z,101070.61
2022-10-18T12:22:38.723Z,101063.42
2022-10-18T12:25:14.423Z,101058.38
2022-10-18T12:28:05.402Z,101055.73
2022-10-18T12:30:44.853Z,101048.45
2022-10-18T12:33:29.177Z,101044.05
2022-10-18T12:36:11.136Z,101041.57
2022-10-18T12:38:47.542Z,101032.35
2022-10-18T12:41:22.335Z,101030.91
2022-10-18T12:44:01.443Z,101027.41
2022-10-18T12:46:45.399Z,101020.25
2022-10-18T12:49:17.028Z,101014.38
2022-10-18T12:51:53.743Z,101012.48
2022-10-18T12:54:27.114Z,101010.80
2022-10-18T12:56:56.273Z,101006.94
2022-10-18T12:59:51.559Z,101007.52
2022-10-18T13:02:26.841Z,101005.44
2022-10-18T13:04:56.926Z,101002.30
2022-10-18T13:07:45.903Z,100995.23
2022-10-18T13:10:41.299Z,100990.84
2022-10-18T13:13:39.595Z,100988.77
2022-10-18T13:16:35.337Z,100990.42
2022-10-18T13:19:21.207Z,100987.26
2022-10-18T13:22:00.764Z,100986.44
2022-10-18T13:24:35.321Z,100980.12
2022-10-18T13:27:36.871Z,100977.43
2022-10-18T13:30:31.574Z,100976.67
2022-10-18T13:33:25.397Z,100972.67
2022-10-18T13:35:56.628Z,100961.77
2022-10-18T13:38:48.073Z,100960.07
2022-10-18T13:41:19.117Z,100954.96
2022-10-18T13:44:22.564Z,100948.81
2022-10-18T13:47:36.876Z,100944.31
2022-10-18T13:50:31.267Z,100940.52
2022-10-18T13:53:38.144Z,100935.58
2022-10-18T13:56:38.482Z,100927.27
2022-10-18T13:59:21.998Z,100923.39
2022-10-18T14:02:36.284Z,100915.04
2022-10-18T14:05:24.930Z,100914.33
2022-10-18T14:08:01.411Z,100914.54
2022-10-18T14:10:57.403Z,100916.20
2022-10-18T14:13:36.450Z,100908.72
2022-10-18T14:16:14.712Z,100909.34
2022-10-18T14:18:47.002Z,100900.81
2022-10-18T14:21:26.262Z,100899.35
2022-10-18T14:24:00.353Z,100892.20
2022-10-18T14:26:29.625Z,100889.66
2022-10-18T14:29:05.970Z,100889.79
2022-10-18T14:31:37.570Z,100889.83
2022-10-18T14:34:12.828Z,100883.20
2022-10-18T14:36:42.673Z,100877.38
2022-10-18T14:39:22.294Z,100873.00
2022-10-18T14:41:52.273Z,100872.38
2022-10-18T14:44:25.299Z,100872.51
2022-10-18T14:47:00.538Z,100872.81
2022-10-18T14:49:29.985Z,100870.81
2022-10-18T14:52:02.404Z,100869.80
2022-10-18T14:54:33.954Z,100869.14
2022-10-18T14:57:03.391Z,100863.04
2022-10-18T14:59:39.040Z,100859.34
2022-10-18T15:02:14.477Z,100855.98
2022-10-18T15:04:46.139Z,100851.21
2022-10-18T15:07:17.500Z,100855.17
2022-10-18T15:09:46.769Z,100855.45
2022-10-18T15:12:17.008Z,100854.93
2022-10-18T15:14:47.550Z,100847.19
2022-10-18T15:17:20.676Z,100844.14
2022-10-18T15:20:06.471Z,100846.61
2022-10-18T15:22:35.204Z,100850.93
2022-10-18T15:25:17.498Z,100848.89
2022-10-18T15:27:49.155Z,100848.46
2022-10-18T15:30:25.176Z,100849.34
2022-10-18T15:32:55.662Z,100853.91
2022-10-18T15:35:27.504Z,100853.06
2022-10-18T15:38:00.226Z,100858.48
2022-10-18T15:40:41.030Z,100860.52
2022-10-18T15:43:39.210Z,100864.63
2022-10-18T15:46:34.609Z,100870.20
2022-10-18T15:49:50.621Z,100878.98
2022-10-18T15:52:38.295Z,100880.11
2022-10-18T15:55:55.429Z,100886.91
2022-10-18T15:58:28.485Z,100908.52
2022-10-18T16:01:00.637Z,100938.57
2022-10-18T16:03:32.684Z,100968.92
2022-10-18T16:06:05.529Z,100964.13
2022-10-18T16:08:40.498Z,100960.38
2022-10-18T16:11:12.703Z,100964.84
2022-10-18T16:13:41.326Z,100967.52
2022-10-18T16:16:13.884Z,100961.48
2022-10-18T16:18:42.350Z,100951.88
2022-10-18T16:21:18.705Z,100939.28
2022-10-18T16:23:47.484Z,100935.62
2022-10-18T16:26:16.411Z,100935.16
2022-10-18T16:28:45.239Z,100931.65
2022-10-18T16:31:17.900Z,100934.59
2022-10-18T16:33:47.222Z,100936.58
2022-10-18T16:36:17.629Z,100940.16
2022-10-18T16:38:47.418Z,100952.95
2022-10-18T16:41:16.843Z,100961.42
2022-10-18T16:43:47.589Z,100961.16
2022-10-18T16:46:18.528Z,100965.42
2022-10-18T16:48:50.805Z,100977.53
2022-10-18T16:51:19.752Z,100987.48
2022-10-18T16:53:48.365Z,100992.30
2022-10-18T16:56:19.773Z,100988.19
2022-10-18T16:58:49.020Z,100979.91
2022-10-18T17:01:20.238Z,100970.66
2022-10-18T17:03:51.561Z,100967.80
2022-10-18T17:06:21.360Z,100976.94
2022-10-18T17:08:51.182Z,100983.11
2022-10-18T17:11:21.248Z,100989.55
2022-10-18T17:13:49.671Z,100986.50
2022-10-18T17:16:26.580Z,100981.41
2022-10-18T17:18:57.218Z,100986.90
2022-10-18T17:21:28.150Z,100990.09
2022-10-18T17:24:00.896Z,100995.05
2022-10-18T17:26:30.548Z,100997.66
2022-10-18T17:29:02.104Z,101003.95
2022-10-18T17:31:35.431Z,101001.58
2022-10-18T17:34:04.522Z,101003.77
2022-10-18T17:36:34.007Z,101006.45
2022-10-18T17:39:03.627Z,100993.30
2022-10-18T17:41:32.101Z,101001.17
2022-10-18T17:44:02.924Z,101021.31
2022-10-18T17:46:35.084Z,101021.48
2022-10-18T17:49:04.314Z,101022.20
2022-10-18T17:51:32.693Z,101046.02
2022-10-18T17:54:06.945Z,101057.96
2022-10-18T17:56:36.684Z,101070.54
2022-10-18T17:59:05.454Z,101070.55
2022-10-18T18:01:38.615Z,101067.05
2022-10-18T18:07:56.164Z,101040.91
2022-10-18T18:10:29.233Z,101037.04
2022-10-18T18:12:57.938Z,101032.33
2022-10-18T18:15:26.776Z,101021.48
2022-10-18T18:17:57.464Z,101022.28
2022-10-18T18:20:26.883Z,101021.08
2022-10-18T18:22:55.968Z,101021.55
2022-10-18T18:25:24.381Z,101017.66
2022-10-18T18:27:54.327Z,101013.28
2022-10-18T18:30:24.537Z,101013.79
2022-10-18T18:32:52.914Z,101005.95
2022-10-18T18:35:22.633Z,100995.56
2022-10-18T18:37:51.338Z,100987.83
2022-10-18T18:40:23.261Z,100985.19
2022-10-18T18:43:07.201Z,100987.60
2022-10-18T18:45:41.566Z,100995.60
2022-10-18T18:48:12.733Z,100998.95
2022-10-18T18:50:49.391Z,101003.95
2022-10-18T18:53:20.415Z,101012.45
2022-10-18T18:55:51.666Z,101022.59
2022-10-18T18:58:20.961Z,101032.39
2022-10-18T19:00:57.017Z,101041.06
2022-10-18T19:03:25.384Z,101046.97
2022-10-18T19:06:04.313Z,101045.39
2022-10-18T19:08:34.416Z,101041.23
2022-10-18T19:11:06.798Z,101046.27
2022-10-18T19:13:37.842Z,101047.98
2022-10-18T19:16:24.574Z,101046.09
2022-10-18T19:18:56.078Z,101050.34
2022-10-18T19:21:28.206Z,101048.64
2022-10-18T19:23:57.276Z,101052.46
2022-10-18T19:26:32.423Z,101055.39
2022-10-18T19:29:04.436Z,101048.98
2022-10-18T19:31:39.218Z,101053.70
2022-10-18T19:34:10.659Z,101062.70
2022-10-18T19:36:40.555Z,101058.73
2022-10-18T19:39:14.051Z,101053.11
2022-10-18T19:41:42.436Z,101053.03
2022-10-18T19:44:10.818Z,101050.74
2022-10-18T19:46:39.163Z,101045.38
2022-10-18T19:49:07.806Z,101044.48
2022-10-18T19:51:36.540Z,101041.66
2022-10-18T19:54:05.426Z,101041.88
2022-10-18T19:56:34.043Z,101039.77
2022-10-18T19:59:02.669Z,101035.02
2022-10-18T20:01:41.260Z,101034.78
2022-10-18T20:04:11.415Z,101033.24
2022-10-18T20:06:40.098Z,101029.65
2022-10-18T20:09:12.409Z,101025.38
2022-10-18T20:11:43.301Z,101029.18
2022-10-18T20:14:11.953Z,101030.06
2022-10-18T20:16:40.180Z,101023.81
2022-10-18T20:19:09.990Z,101024.66
2022-10-18T20:21:39.387Z,101026.90
2022-10-18T20:24:09.199Z,101025.54
2022-10-18T20:26:37.534Z,101030.78
2022-10-18T20:29:07.209Z,101027.80
2022-10-18T20:31:38.349Z,101029.02
2022-10-18T20:34:08.808Z,101025.77
2022-10-18T20:36:37.917Z,101021.38
2022-10-18T20:39:07.792Z,101023.42
2022-10-18T20:41:38.029Z,101024.06
2022-10-18T20:44:10.774Z,101022.83
2022-10-18T20:46:40.250Z,101023.02
2022-10-18T20:49:11.066Z,101026.88
2022-10-18T20:51:40.199Z,101029.19
2022-10-18T20:54:10.082Z,101030.77
2022-10-18T20:56:39.318Z,101031.92
2022-10-18T20:59:09.203Z,101028.80
2022-10-18T21:01:38.930Z,101032.73
2022-10-18T21:04:11.192Z,101030.05
2022-10-18T21:06:45.015Z,101029.34
2022-10-18T21:09:15.882Z,101027.10
2022-10-18T21:11:46.376Z,101022.71
2022-10-18T21:14:17.335Z,101021.13
2022-10-18T21:16:50.332Z,101021.39
2022-10-18T21:19:21.244Z,101021.79
2022-10-18T21:21:52.196Z,101014.56
2022-10-18T21:24:24.482Z,101021.23
2022-10-18T21:26:57.376Z,101017.83
2022-10-18T21:29:26.409Z,101019.46
2022-10-18T21:31:58.723Z,101022.77
2022-10-18T21:34:27.304Z,101022.90
2022-10-18T21:36:55.619Z,101023.90
2022-10-18T21:41:57.968Z,101015.66
2022-10-18T21:44:26.857Z,101008.23
2022-10-18T21:46:55.197Z,101017.42
2022-10-18T21:49:24.503Z,101016.55
2022-10-18T21:51:53.092Z,101018.57
2022-10-18T21:54:21.771Z,101015.63
2022-10-18T21:56:53.534Z,101013.42
2022-10-18T21:59:22.025Z,101011.92
2022-10-18T22:01:55.425Z,101013.96
2022-10-18T22:04:25.130Z,101014.33
2022-10-18T22:06:53.649Z,101016.27
2022-10-18T22:09:22.386Z,101012.59
2022-10-18T22:11:53.742Z,101010.23
2022-10-18T22:14:25.101Z,101008.20
2022-10-18T22:16:53.406Z,101007.06
2022-10-18T22:19:26.974Z,101004.88
2022-10-18T22:21:55.392Z,101006.95
2022-10-18T22:24:23.938Z,101004.20
2022-10-18T22:26:52.776Z,101005.70
2022-10-18T22:29:22.084Z,101007.10
2022-10-18T22:31:53.730Z,101006.27
2022-10-18T22:34:25.644Z,101000.77
2022-10-18T22:36:55.254Z,100999.23
2022-10-18T22:39:24.291Z,100998.27
2022-10-18T22:41:55.861Z,100999.59
2022-10-18T22:44:24.821Z,101003.40
2022-10-18T22:46:53.482Z,100998.05
2022-10-18T22:49:22.312Z,100994.41
2022-10-18T22:51:50.866Z,100993.20
2022-10-18T22:54:21.605Z,100995.70
2022-10-18T22:56:50.021Z,101000.95
2022-10-18T22:59:19.504Z,100994.81
2022-10-18T23:01:47.863Z,100994.02
2022-10-18T23:04:16.453Z,100990.76
2022-10-18T23:06:44.720Z,100989.34
2022-10-18T23:09:12.965Z,100986.50
2022-10-18T23:11:41.333Z,100983.48
2022-10-18T23:14:11.093Z,100987.01
2022-10-18T23:16:41.509Z,100988.28
2022-10-18T23:19:15.955Z,100987.73
2022-10-18T23:21:48.558Z,100987.63
2022-10-18T23:24:16.921Z,100989.09
2022-10-18T23:26:47.409Z,100990.94
2022-10-18T23:29:15.893Z,100989.77
2022-10-18T23:31:44.688Z,100991.68
2022-10-18T23:34:13.100Z,100988.02
2022-10-18T23:36:41.459Z,100988.65
2022-10-18T23:39:10.903Z,100992.33
2022-10-18T23:41:39.290Z,100995.08
2022-10-18T23:44:08.815Z,100997.08
2022-10-18T23:46:39.385Z,100999.46
2022-10-18T23:49:07.882Z,100996.52
2022-10-18T23:51:36.471Z,100996.98
2022-10-18T23:54:06.035Z,100996.57
2022-10-18T23:56:34.472Z,100992.55
2022-10-18T23:59:04.450Z,100991.77
